Plant City, FL (33565)

5:33 PM EST on March 06, 2015 (GMT -0500)
Bull's Back Yard | Change Station
CLOSE
Current Station
Personal Weather Station
Location: North of Plant City, FL
Elevation: 138 ft
Nearby Weather Stations

Elev 138 ft 28.11 °N, 82.15 °W | Updated 3 seconds ago

Overcast
Overcast
61.3 °F
Feels Like 61.3 °F
N
5.0
Wind Variable Wind from NE
Gusts 7.6 mph

Today
High -- | Low -- °F
--% Chance of Precip.
Yesterday
High -- | Low -- °F
Precip. -- in
6:48 AM 6:31 PM
Full, 99% visible
Pressure 30.23 in
Visibility 10.0 miles
Clouds Overcast 900 ft
Dew Point 61 °F
Humidity 99%
Rainfall in
Snow Depth Not available.
UV 0 out of 12
Pollen 9.90 out of 12
Air Quality Not available.
Flu Activity Not available.
METAR KZPH 062215Z AUTO 02008KT 10SM OVC009 15/13 A3023 RMK AO2

More Conditions Fewer Conditions

Pressure 30.23 in
Visibility 10.0 miles
Clouds Overcast 900 ft
Dew Point 61 °F
Humidity 99%
Rainfall in
Snow Depth Not available.
UV 0 out of 12
Pollen 9.90 out of 12
Air Quality Not available.
Flu Activity Not available.
METAR KZPH 062215Z AUTO 02008KT 10SM OVC009 15/13 A3023 RMK AO2

More Conditions Fewer Conditions

10-Day Weather Forecast

Almanac

Astronomy

Mar. 06, 2015 Rise Set
Actual Time
Civil Twilight
Nautical Twilight
Astronomical Twilight
Moon
Length of Visible Light
Length of Day
Tomorrow will be .
, % of the Moon is Illuminated

Today's Extremes

State Highs State Lows

Community

WunderPhotos

Upload Photos

1,803,420 photos uploaded!

WunderBlogs® & News

Nearby

Air Quality

  Air Quality AQ Index Pollutant
Not available.

Snow Depth

Station Depth Elevation

Earthquake Activity

City Distance Mag. Time & Date
Minimum magnitude displayed is 2.5.

Coastal Water Temperatures

Place Temperature

Nearby Weather Stations